createdAt,value
2019-01-13T00:00:33.940Z,93.85
2019-01-13T00:03:37.862Z,93.83
2019-01-13T00:06:41.776Z,93.77
2019-01-13T00:09:45.795Z,93.71
2019-01-13T00:12:49.745Z,94.07
2019-01-13T00:15:53.705Z,94.48
2019-01-13T00:18:57.673Z,94.82
2019-01-13T00:22:01.678Z,94.76
2019-01-13T00:25:06.152Z,94.44
2019-01-13T00:28:13.874Z,94.21
2019-01-13T00:31:17.826Z,93.98
2019-01-13T00:34:21.750Z,93.59
2019-01-13T00:37:25.778Z,93.18
2019-01-13T00:40:32.087Z,93.15
2019-01-13T00:43:36.020Z,93.23
2019-01-13T00:46:40.030Z,93.38
2019-01-13T00:49:43.880Z,93.42
2019-01-13T00:52:47.893Z,93.60
2019-01-13T00:55:51.829Z,93.82
2019-01-13T00:58:55.981Z,94.29
2019-01-13T01:01:59.978Z,94.62
2019-01-13T01:05:04.546Z,95.20
2019-01-13T01:08:09.299Z,95.45
2019-01-13T01:11:14.515Z,95.81
2019-01-13T01:14:18.530Z,95.77
2019-01-13T01:17:22.453Z,95.79
2019-01-13T01:20:26.377Z,95.92
2019-01-13T01:23:31.600Z,96.16
2019-01-13T01:26:37.561Z,96.24
2019-01-13T01:29:41.503Z,96.31
2019-01-13T01:32:46.625Z,96.22
2019-01-13T01:35:52.166Z,96.14
2019-01-13T01:38:56.032Z,95.82
2019-01-13T01:41:59.867Z,95.39
2019-01-13T01:45:04.675Z,95.10
2019-01-13T01:48:08.609Z,94.77
2019-01-13T01:51:12.437Z,94.66
2019-01-13T01:54:16.307Z,94.37
2019-01-13T01:57:20.223Z,94.27
2019-01-13T02:00:26.538Z,94.23
2019-01-13T02:03:30.558Z,94.73
2019-01-13T02:06:34.543Z,95.03
2019-01-13T02:09:38.476Z,94.93
2019-01-13T02:12:42.470Z,94.85
2019-01-13T02:15:46.727Z,94.73
2019-01-13T02:18:50.719Z,94.42
2019-01-13T02:21:54.652Z,94.58
2019-01-13T02:24:58.493Z,94.82
2019-01-13T02:28:02.484Z,94.97
2019-01-13T02:31:06.421Z,95.08
2019-01-13T02:34:10.332Z,95.32
2019-01-13T02:37:14.273Z,95.49
2019-01-13T02:40:19.519Z,95.31
2019-01-13T02:43:23.362Z,95.25
2019-01-13T02:46:27.310Z,95.19
2019-01-13T02:49:33.394Z,95.06
2019-01-13T02:52:37.311Z,95.07
2019-01-13T02:55:41.204Z,94.87
2019-01-13T02:58:45.547Z,94.68
2019-01-13T03:01:49.499Z,94.23
2019-01-13T03:04:53.749Z,94.04
2019-01-13T03:07:57.742Z,94.16
2019-01-13T03:11:01.760Z,94.17
2019-01-13T03:14:06.147Z,94.02
2019-01-13T03:17:10.150Z,94.03
2019-01-13T03:20:14.656Z,93.96
2019-01-13T03:23:20.955Z,93.72
2019-01-13T03:26:28.592Z,93.57
2019-01-13T03:29:32.518Z,93.45
2019-01-13T03:32:36.375Z,93.22
2019-01-13T03:35:40.211Z,93.12
2019-01-13T03:38:44.045Z,93.01
2019-01-13T03:41:48.194Z,93.07
2019-01-13T03:44:52.131Z,93.23
2019-01-13T03:47:56.056Z,93.25
2019-01-13T03:50:59.966Z,93.36
2019-01-13T03:54:04.056Z,93.24
2019-01-13T03:57:08.381Z,92.90
2019-01-13T04:00:31.505Z,93.00
2019-01-13T04:03:35.502Z,92.95
2019-01-13T04:06:41.539Z,92.90
2019-01-13T04:09:45.385Z,92.98
2019-01-13T04:12:50.856Z,92.65
2019-01-13T04:16:04.099Z,92.44
2019-01-13T04:19:07.954Z,92.51
2019-01-13T04:22:11.958Z,92.13
2019-01-13T04:25:15.820Z,92.04
2019-01-13T04:28:21.926Z,91.81
2019-01-13T04:31:29.554Z,91.57
2019-01-13T04:34:33.469Z,91.70
2019-01-13T04:37:39.789Z,91.74
2019-01-13T04:40:43.695Z,91.92
2019-01-13T04:43:47.609Z,92.62
2019-01-13T04:46:51.529Z,93.19
2019-01-13T04:49:55.447Z,93.79
2019-01-13T04:52:59.289Z,94.02
2019-01-13T04:56:03.297Z,94.49
2019-01-13T04:59:07.154Z,94.84
2019-01-13T05:02:11.475Z,94.74
2019-01-13T05:05:15.525Z,95.10
2019-01-13T05:08:19.514Z,95.00
2019-01-13T05:11:23.462Z,95.07
2019-01-13T05:14:27.298Z,95.28
2019-01-13T05:17:31.145Z,95.59
2019-01-13T05:20:35.012Z,95.64
2019-01-13T05:23:38.859Z,95.98
2019-01-13T05:26:42.722Z,96.11
2019-01-13T05:29:46.653Z,96.42
2019-01-13T05:32:50.773Z,96.53
2019-01-13T05:35:54.643Z,96.60
2019-01-13T05:38:58.486Z,96.77
2019-01-13T05:42:02.320Z,96.78
2019-01-13T05:45:07.215Z,96.71
2019-01-13T05:48:11.201Z,96.70
2019-01-13T05:51:15.766Z,96.80
2019-01-13T05:54:19.628Z,96.91
2019-01-13T05:57:23.550Z,96.90
2019-01-13T06:00:30.739Z,96.94
2019-01-13T06:03:37.004Z,97.06
2019-01-13T06:06:41.024Z,97.12
2019-01-13T06:09:45.034Z,97.05
2019-01-13T06:12:49.148Z,97.07
2019-01-13T06:15:53.076Z,97.17
2019-01-13T06:18:57.042Z,97.30
2019-01-13T06:22:01.020Z,97.43
2019-01-13T06:25:05.537Z,97.55
2019-01-13T06:28:09.471Z,97.70
2019-01-13T06:31:13.478Z,97.82
2019-01-13T06:34:17.925Z,97.91
2019-01-13T06:37:21.771Z,97.91
2019-01-13T06:40:27.893Z,97.88
2019-01-13T06:43:31.786Z,97.92
2019-01-13T06:46:35.703Z,97.96
2019-01-13T06:49:40.146Z,97.65
2019-01-13T06:52:44.250Z,97.67
2019-01-13T06:55:50.261Z,97.72
2019-01-13T06:58:54.086Z,97.66
2019-01-13T07:02:03.513Z,97.68
2019-01-13T07:05:06.703Z,97.85
2019-01-13T07:08:10.535Z,97.86
2019-01-13T07:11:14.451Z,97.97
2019-01-13T07:14:18.389Z,98.12
2019-01-13T07:17:22.333Z,97.99
2019-01-13T07:20:26.238Z,98.05
2019-01-13T07:23:30.174Z,97.70
2019-01-13T07:26:34.091Z,97.97
2019-01-13T07:29:37.929Z,98.16
2019-01-13T07:32:41.843Z,98.27
2019-01-13T07:35:45.763Z,98.34
2019-01-13T07:38:49.598Z,98.41
2019-01-13T07:41:53.450Z,98.36
2019-01-13T07:44:57.409Z,98.30
2019-01-13T07:48:01.249Z,98.33
2019-01-13T07:51:05.279Z,98.37
2019-01-13T07:54:09.233Z,98.15
2019-01-13T07:57:13.130Z,98.21
2019-01-13T08:00:22.382Z,98.26
2019-01-13T08:03:27.489Z,98.36
2019-01-13T08:06:31.424Z,98.47
2019-01-13T08:09:35.269Z,98.61
2019-01-13T08:12:39.111Z,98.85
2019-01-13T08:15:44.317Z,98.92
2019-01-13T08:18:48.167Z,99.05
2019-01-13T08:21:52.148Z,99.14
2019-01-13T08:24:56.037Z,99.01
2019-01-13T08:28:02.094Z,99.01
2019-01-13T08:31:06.154Z,99.16
2019-01-13T08:34:13.510Z,99.16
2019-01-13T08:37:17.401Z,99.36
2019-01-13T08:40:22.943Z,99.50
2019-01-13T08:43:26.960Z,99.49
2019-01-13T08:46:30.814Z,99.54
2019-01-13T08:49:34.999Z,99.57
2019-01-13T08:52:38.848Z,99.56
2019-01-13T08:55:42.843Z,99.59
2019-01-13T08:58:46.695Z,99.48
2019-01-13T09:01:50.544Z,99.22
2019-01-13T09:04:55.990Z,99.24
2019-01-13T09:07:59.974Z,99.29
2019-01-13T09:11:03.894Z,99.36
2019-01-13T09:14:07.812Z,99.39
2019-01-13T09:17:11.798Z,99.33
2019-01-13T09:20:27.156Z,99.25
2019-01-13T09:23:31.078Z,99.32
2019-01-13T09:26:35.101Z,99.30
2019-01-13T09:29:42.520Z,99.39
2019-01-13T09:32:44.880Z,99.46
2019-01-13T09:35:48.971Z,99.40
2019-01-13T09:38:52.953Z,99.38
2019-01-13T09:41:56.879Z,99.33
2019-01-13T09:45:00.826Z,99.28
2019-01-13T09:48:05.024Z,99.31
2019-01-13T09:51:08.969Z,99.27
2019-01-13T09:54:12.921Z,99.15
2019-01-13T09:57:18.727Z,99.16
2019-01-13T10:00:33.725Z,99.15
2019-01-13T10:03:37.746Z,99.19
2019-01-13T10:06:41.598Z,99.17
2019-01-13T10:09:45.555Z,98.98
2019-01-13T10:12:49.523Z,99.06
2019-01-13T10:16:00.475Z,99.17
2019-01-13T10:19:04.913Z,99.16
2019-01-13T10:22:08.866Z,99.15
2019-01-13T10:25:13.698Z,99.10
2019-01-13T10:28:17.701Z,99.03
2019-01-13T10:31:21.704Z,98.86
2019-01-13T10:34:28.114Z,98.85
2019-01-13T10:37:32.141Z,98.86
2019-01-13T10:40:36.061Z,98.95
2019-01-13T10:43:40.064Z,99.07
2019-01-13T10:46:44.451Z,98.87
2019-01-13T10:49:50.190Z,98.96
2019-01-13T10:52:56.366Z,98.85
2019-01-13T10:56:05.535Z,98.62
2019-01-13T10:59:12.659Z,98.42
2019-01-13T11:02:16.589Z,97.84
2019-01-13T11:05:22.360Z,97.18
2019-01-13T11:08:26.719Z,96.99
2019-01-13T11:11:30.710Z,96.91
2019-01-13T11:14:34.660Z,96.61
2019-01-13T11:17:38.680Z,96.39
2019-01-13T11:20:42.537Z,95.84
2019-01-13T11:23:49.983Z,95.90
2019-01-13T11:26:53.943Z,95.99
2019-01-13T11:29:57.806Z,95.92
2019-01-13T11:33:09.101Z,95.68
2019-01-13T11:36:10.863Z,95.16
2019-01-13T11:39:15.249Z,94.90
2019-01-13T11:42:19.288Z,95.30
2019-01-13T11:45:23.522Z,95.34
2019-01-13T11:48:27.394Z,95.46
2019-01-13T11:51:31.410Z,96.23
2019-01-13T11:54:35.289Z,96.22
2019-01-13T11:57:39.942Z,95.99
2019-01-13T12:00:47.538Z,95.75
2019-01-13T12:03:51.495Z,95.12
2019-01-13T12:06:55.447Z,94.10
2019-01-13T12:09:59.420Z,93.80
2019-01-13T12:13:06.088Z,93.36
2019-01-13T12:16:10.060Z,93.90
2019-01-13T12:19:13.936Z,93.85
2019-01-13T12:22:20.036Z,93.43
2019-01-13T12:25:24.648Z,92.93
2019-01-13T12:28:28.816Z,93.01
2019-01-13T12:31:35.808Z,92.52
2019-01-13T12:34:39.827Z,92.02
2019-01-13T12:37:43.839Z,92.24
2019-01-13T12:40:47.777Z,92.71
2019-01-13T12:43:51.642Z,93.12
2019-01-13T12:46:55.510Z,93.76
2019-01-13T12:49:59.539Z,94.50
2019-01-13T12:53:03.572Z,95.01
2019-01-13T12:56:07.528Z,94.92
2019-01-13T12:59:11.399Z,94.63
2019-01-13T13:02:15.654Z,94.81
2019-01-13T13:05:19.693Z,94.63
2019-01-13T13:08:23.639Z,93.74
2019-01-13T13:11:27.613Z,92.52
2019-01-13T13:14:33.991Z,92.79
2019-01-13T13:17:38.534Z,93.82
2019-01-13T13:20:42.476Z,93.85
2019-01-13T13:23:46.379Z,94.15
2019-01-13T13:26:50.326Z,94.41
2019-01-13T13:29:54.161Z,94.39
2019-01-13T13:33:01.421Z,94.15
2019-01-13T13:36:07.314Z,94.04
2019-01-13T13:39:14.412Z,93.60
2019-01-13T13:42:21.492Z,93.87
2019-01-13T13:45:25.520Z,94.19
2019-01-13T13:48:29.549Z,94.13
2019-01-13T13:51:33.458Z,93.72
2019-01-13T13:54:37.467Z,93.45
2019-01-13T13:57:41.475Z,93.14
2019-01-13T14:00:46.158Z,93.83
2019-01-13T14:03:50.107Z,93.86
2019-01-13T14:06:54.003Z,94.07
2019-01-13T14:09:57.940Z,93.75
2019-01-13T14:13:01.989Z,93.92
2019-01-13T14:16:06.049Z,94.07
2019-01-13T14:19:10.031Z,93.85
2019-01-13T14:22:13.932Z,93.68
2019-01-13T14:25:21.116Z,93.45
2019-01-13T14:28:25.171Z,93.34
2019-01-13T14:31:29.201Z,92.99
2019-01-13T14:34:33.144Z,92.97
2019-01-13T14:37:37.071Z,92.75
2019-01-13T14:40:42.590Z,92.45
2019-01-13T14:43:46.518Z,92.09
2019-01-13T14:46:50.415Z,91.86
2019-01-13T14:49:54.271Z,91.80
2019-01-13T14:52:58.293Z,91.60
2019-01-13T14:56:02.366Z,91.72
2019-01-13T14:59:06.712Z,91.91
2019-01-13T15:02:10.571Z,92.12
2019-01-13T15:05:14.652Z,92.01
2019-01-13T15:08:18.701Z,92.18
2019-01-13T15:11:22.610Z,92.57
2019-01-13T15:14:28.379Z,92.53
2019-01-13T15:17:35.077Z,92.30
2019-01-13T15:20:40.609Z,92.10
2019-01-13T15:23:44.649Z,91.75
2019-01-13T15:26:50.722Z,91.20
2019-01-13T15:29:56.616Z,90.48
2019-01-13T15:33:00.641Z,90.10
2019-01-13T15:36:06.559Z,90.13
2019-01-13T15:39:10.511Z,89.46
2019-01-13T15:42:14.751Z,89.03
2019-01-13T15:45:18.984Z,88.69
2019-01-13T15:48:22.955Z,88.63
2019-01-13T15:51:26.990Z,88.72
2019-01-13T15:54:30.979Z,88.51
2019-01-13T15:57:35.028Z,88.02
2019-01-13T16:00:39.517Z,88.32
2019-01-13T16:03:43.438Z,88.73
2019-01-13T16:06:49.412Z,89.06
2019-01-13T16:09:53.355Z,88.69
2019-01-13T16:12:58.057Z,88.96
2019-01-13T16:16:04.532Z,88.58
2019-01-13T16:19:10.750Z,88.73
2019-01-13T16:22:14.980Z,89.25
2019-01-13T16:25:19.016Z,89.05
2019-01-13T16:28:22.975Z,88.85
2019-01-13T16:31:26.927Z,88.49
2019-01-13T16:34:30.868Z,88.12
2019-01-13T16:37:34.797Z,87.88
2019-01-13T16:40:38.806Z,88.04
2019-01-13T16:43:44.154Z,88.13
2019-01-13T16:46:48.084Z,87.51
2019-01-13T16:49:52.063Z,87.10
2019-01-13T16:52:57.430Z,86.80
2019-01-13T16:56:01.398Z,86.71
2019-01-13T16:59:05.643Z,86.03
2019-01-13T17:02:09.582Z,85.75
2019-01-13T17:05:15.107Z,87.43
2019-01-13T17:08:19.325Z,87.74
2019-01-13T17:11:26.141Z,87.33
2019-01-13T17:14:30.374Z,87.40
2019-01-13T17:17:37.392Z,86.76
2019-01-13T17:20:41.374Z,86.62
2019-01-13T17:23:45.306Z,86.79
2019-01-13T17:26:49.371Z,86.51
2019-01-13T17:29:53.366Z,87.04
2019-01-13T17:32:57.386Z,88.20
2019-01-13T17:36:04.136Z,89.82
2019-01-13T17:39:09.600Z,91.82
2019-01-13T17:42:13.676Z,92.67
2019-01-13T17:45:18.829Z,92.23
2019-01-13T17:48:22.794Z,91.64
2019-01-13T17:51:28.890Z,91.11
2019-01-13T17:54:32.913Z,90.20
2019-01-13T17:57:37.086Z,90.12
2019-01-13T18:01:12.494Z,91.19
2019-01-13T18:04:16.662Z,92.36
2019-01-13T18:07:23.550Z,92.61
2019-01-13T18:10:27.571Z,92.62
2019-01-13T18:13:31.527Z,92.22
2019-01-13T18:16:35.466Z,92.36
2019-01-13T18:19:39.343Z,92.34
2019-01-13T18:22:47.100Z,92.37
2019-01-13T18:25:51.132Z,92.28
2019-01-13T18:28:55.206Z,91.17
2019-01-13T18:31:59.130Z,90.54
2019-01-13T18:35:03.211Z,90.12
2019-01-13T18:38:09.210Z,90.01
2019-01-13T18:41:17.307Z,89.97
2019-01-13T18:44:21.180Z,89.21
2019-01-13T18:47:25.161Z,88.01
2019-01-13T18:50:29.078Z,87.13
2019-01-13T18:53:33.106Z,86.91
2019-01-13T18:56:37.147Z,86.51
2019-01-13T18:59:41.034Z,86.04
2019-01-13T19:02:45.465Z,85.72
2019-01-13T19:05:51.222Z,84.73
2019-01-13T19:08:58.279Z,83.63
2019-01-13T19:12:04.608Z,82.34
2019-01-13T19:15:09.758Z,82.73
2019-01-13T19:18:17.481Z,83.57
2019-01-13T19:21:21.694Z,83.89
2019-01-13T19:24:28.613Z,83.05
2019-01-13T19:27:32.655Z,80.22
2019-01-13T19:30:38.760Z,79.42
2019-01-13T19:33:44.656Z,79.43
2019-01-13T19:36:48.758Z,79.87
2019-01-13T19:39:52.710Z,79.10
2019-01-13T19:42:56.764Z,78.52
2019-01-13T19:46:00.808Z,77.94
2019-01-13T19:49:12.098Z,78.74
2019-01-13T19:52:16.268Z,79.87
2019-01-13T19:55:20.639Z,79.66
2019-01-13T19:58:24.840Z,80.24
2019-01-13T20:01:29.093Z,80.50
2019-01-13T20:04:33.282Z,79.76
2019-01-13T20:07:38.501Z,79.34
2019-01-13T20:10:42.583Z,79.21
2019-01-13T20:13:46.702Z,79.26
2019-01-13T20:16:50.823Z,78.51
2019-01-13T20:19:54.966Z,77.30
2019-01-13T20:22:59.077Z,76.68
2019-01-13T20:26:03.250Z,77.37
2019-01-13T20:29:07.401Z,75.74
2019-01-13T20:32:11.761Z,75.53
2019-01-13T20:35:19.614Z,76.15
2019-01-13T20:38:26.899Z,76.58
2019-01-13T20:41:33.738Z,76.59
2019-01-13T20:44:37.664Z,76.85
2019-01-13T20:47:45.646Z,76.68
2019-01-13T20:50:49.820Z,77.19
2019-01-13T20:53:53.942Z,76.92
2019-01-13T20:56:58.125Z,76.94
2019-01-13T21:00:04.374Z,76.97
2019-01-13T21:03:09.123Z,76.76
2019-01-13T21:06:13.172Z,76.77
2019-01-13T21:09:20.055Z,77.14
2019-01-13T21:12:28.735Z,76.84
2019-01-13T21:15:37.219Z,76.82
2019-01-13T21:18:49.483Z,76.98
2019-01-13T21:21:53.523Z,76.33
2019-01-13T21:24:59.644Z,76.01
2019-01-13T21:28:03.977Z,75.48
2019-01-13T21:31:14.024Z,75.46
2019-01-13T21:34:18.052Z,75.33
2019-01-13T21:37:22.008Z,75.54
2019-01-13T21:40:25.958Z,75.85
2019-01-13T21:43:30.022Z,76.23
2019-01-13T21:46:36.979Z,76.49
2019-01-13T21:49:40.922Z,77.32
2019-01-13T21:52:47.482Z,75.92
2019-01-13T21:55:51.450Z,75.57
2019-01-13T21:58:55.450Z,75.14
2019-01-13T22:01:59.392Z,74.74
2019-01-13T22:05:03.598Z,75.22
2019-01-13T22:08:07.624Z,74.89
2019-01-13T22:11:11.829Z,74.77
2019-01-13T22:14:15.688Z,75.25
2019-01-13T22:17:19.549Z,75.76
2019-01-13T22:20:24.179Z,75.42
2019-01-13T22:23:28.119Z,75.10
2019-01-13T22:26:32.424Z,75.49
2019-01-13T22:29:38.633Z,75.57
2019-01-13T22:32:42.571Z,76.01
2019-01-13T22:35:48.314Z,75.43
2019-01-13T22:38:52.121Z,75.45
2019-01-13T22:41:56.131Z,76.02
2019-01-13T22:44:59.995Z,75.93
2019-01-13T22:48:03.856Z,76.35
2019-01-13T22:51:07.827Z,75.95
2019-01-13T22:54:11.771Z,76.03
2019-01-13T22:57:15.679Z,74.66
2019-01-13T23:00:54.660Z,75.36
2019-01-13T23:04:05.274Z,75.16
2019-01-13T23:07:09.289Z,75.08
2019-01-13T23:10:13.233Z,75.63
2019-01-13T23:13:17.577Z,74.98
2019-01-13T23:16:26.103Z,74.60
2019-01-13T23:19:30.125Z,74.01
2019-01-13T23:22:34.141Z,73.42
2019-01-13T23:25:37.986Z,73.05
2019-01-13T23:28:41.990Z,72.55
2019-01-13T23:31:46.032Z,72.29
2019-01-13T23:34:50.018Z,72.49
2019-01-13T23:37:53.984Z,72.03
2019-01-13T23:40:57.922Z,72.00
2019-01-13T23:44:01.811Z,72.31
2019-01-13T23:47:05.763Z,71.99
2019-01-13T23:50:09.858Z,71.43
2019-01-13T23:53:13.852Z,71.64
2019-01-13T23:56:19.631Z,71.88
2019-01-13T23:59:24.861Z,71.43
